Time;durP1;ratioP1;P1;durP2;ratioP2;P2;SDS_P1;SDS_P2;PMS_P1;PMS_P2;Temp;Humidity;BMP_temperature;BMP_pressure;BME280_temperature;BME280_humidity;BME280_pressure;Samples;Min_cycle;Max_cycle;Signal;HPM_P1;HPM_P2
2023/06/12 00:01:52;;;;;;;4.87;4.57;;;17.60;99.90;;;;;;5053831;28;20630;-80
2023/06/12 00:04:17;;;;;;;5.47;5.03;;;17.70;99.90;;;;;;5053594;28;20199;-80
2023/06/12 00:06:43;;;;;;;6.57;4.73;;;17.70;99.90;;;;;;5055205;28;20171;-80
2023/06/12 00:09:10;;;;;;;4.83;4.43;;;17.70;99.90;;;;;;5055755;28;20254;-82
2023/06/12 00:11:37;;;;;;;7.03;5.03;;;17.70;99.90;;;;;;5053413;28;20289;-79
2023/06/12 00:14:03;;;;;;;4.77;4.37;;;17.60;99.90;;;;;;5053774;28;20168;-80
2023/06/12 00:16:29;;;;;;;4.83;4.53;;;17.60;99.90;;;;;;5035685;28;20241;-80
2023/06/12 00:18:55;;;;;;;6.57;5.97;;;17.60;99.90;;;;;;5053495;28;20834;-80
2023/06/12 00:21:22;;;;;;;5.10;4.70;;;17.60;99.90;;;;;;5052882;28;20547;-81
2023/06/12 00:23:48;;;;;;;4.97;4.67;;;17.60;99.90;;;;;;5053655;28;20576;-81
2023/06/12 00:26:14;;;;;;;4.90;4.60;;;17.70;99.90;;;;;;5053135;28;20199;-78
2023/06/12 00:28:40;;;;;;;4.80;4.40;;;17.60;99.90;;;;;;5053124;28;20986;-81
2023/06/12 00:31:06;;;;;;;5.00;4.60;;;17.50;99.90;;;;;;5053029;28;20172;-78
2023/06/12 00:33:32;;;;;;;4.80;4.47;;;17.50;99.90;;;;;;5053719;28;20636;-80
2023/06/12 00:35:57;;;;;;;5.37;4.90;;;17.50;99.90;;;;;;5035716;28;20717;-80
2023/06/12 00:38:23;;;;;;;5.23;4.73;;;17.60;99.90;;;;;;5052075;28;20256;-80
2023/06/12 00:40:49;;;;;;;5.07;4.67;;;17.50;99.90;;;;;;5034153;28;20230;-79
2023/06/12 00:43:15;;;;;;;5.07;4.70;;;17.50;99.90;;;;;;5052290;28;20250;-78
2023/06/12 00:45:41;;;;;;;4.97;4.67;;;17.60;99.90;;;;;;5034474;28;20232;-81
2023/06/12 00:48:07;;;;;;;5.30;4.90;;;17.60;99.90;;;;;;5052115;28;20198;-79
2023/06/12 00:50:35;;;;;;;5.67;4.83;;;17.60;99.90;;;;;;5051974;28;20596;-79
2023/06/12 00:53:01;;;;;;;5.00;4.50;;;17.50;99.90;;;;;;5052258;28;20635;-79
2023/06/12 00:55:29;;;;;;;6.20;4.70;;;17.40;99.90;;;;;;5052237;28;20259;-81
2023/06/12 00:57:55;;;;;;;5.40;4.90;;;17.40;99.90;;;;;;5051969;28;20609;-81
2023/06/12 01:00:21;;;;;;;5.40;4.90;;;17.40;99.90;;;;;;5052494;28;20225;-82
2023/06/12 01:02:48;;;;;;;5.53;5.13;;;17.40;99.90;;;;;;5035854;28;20186;-81
2023/06/12 01:05:19;;;;;;;5.43;4.63;;;17.50;99.90;;;;;;5035586;28;20591;-79
2023/06/12 01:07:59;;;;;;;5.50;5.00;;;17.60;99.90;;;;;;5053334;28;20178;-81
2023/06/12 01:10:32;;;;;;;5.53;5.07;;;17.50;99.90;;;;;;5054070;28;20570;-81
2023/06/12 01:12:59;;;;;;;4.60;4.30;;;17.50;99.90;;;;;;5055248;28;20912;-80
2023/06/12 01:15:25;;;;;;;5.03;4.70;;;17.50;99.90;;;;;;5058173;28;20172;-78
2023/06/12 01:17:51;;;;;;;4.93;4.50;;;17.50;99.90;;;;;;5072996;28;20227;-83
2023/06/12 01:20:17;;;;;;;5.10;4.60;;;17.40;99.90;;;;;;5059816;28;20322;-80
2023/06/12 01:22:57;;;;;;;5.57;5.07;;;17.40;99.90;;;;;;5077711;28;20160;-82
2023/06/12 01:26:00;;;;;;;4.80;4.40;;;17.40;99.90;;;;;;5082187;28;20155;-78
2023/06/12 01:28:28;;;;;;;5.40;5.00;;;17.30;99.90;;;;;;5061416;28;20662;-79
2023/06/12 01:31:14;;;;;;;4.83;4.40;;;17.30;99.90;;;;;;5060998;28;20168;-80
2023/06/12 01:33:47;;;;;;;5.33;4.83;;;17.30;99.90;;;;;;5059518;28;20638;-80
2023/06/12 01:36:19;;;;;;;5.67;5.17;;;17.30;99.90;;;;;;5056142;28;20164;-79
2023/06/12 01:38:52;;;;;;;5.33;4.80;;;17.30;99.90;;;;;;5055801;28;20286;-79
2023/06/12 01:41:19;;;;;;;5.00;4.70;;;17.30;99.90;;;;;;5055579;28;20194;-81
2023/06/12 01:43:45;;;;;;;5.07;4.77;;;17.30;99.90;;;;;;5055840;28;20628;-79
2023/06/12 01:46:11;;;;;;;5.73;4.90;;;17.30;99.90;;;;;;5055445;28;20256;-80
2023/06/12 01:48:38;;;;;;;5.60;5.20;;;17.30;99.90;;;;;;5055359;28;20630;-78
2023/06/12 01:51:04;;;;;;;4.97;4.53;;;17.40;99.90;;;;;;5056329;28;20729;-81
2023/06/12 01:53:30;;;;;;;4.97;4.40;;;17.30;99.90;;;;;;5056590;28;20258;-83
2023/06/12 01:55:56;;;;;;;5.13;4.77;;;17.30;99.90;;;;;;5055570;28;20505;-79
2023/06/12 01:58:23;;;;;;;5.20;4.20;;;17.30;99.90;;;;;;5054809;28;20211;-80
2023/06/12 02:00:48;;;;;;;5.30;4.90;;;17.30;99.90;;;;;;5054931;28;20172;-80
2023/06/12 02:03:14;;;;;;;6.80;5.07;;;17.40;99.90;;;;;;5055214;28;20175;-80
2023/06/12 02:05:40;;;;;;;5.17;4.73;;;17.30;99.90;;;;;;5054911;28;20172;-81
2023/06/12 02:08:06;;;;;;;5.80;5.30;;;17.20;99.90;;;;;;5054575;28;20190;-79
2023/06/12 02:10:31;;;;;;;6.83;5.17;;;17.20;99.90;;;;;;5054507;28;20284;-80
2023/06/12 02:12:57;;;;;;;5.03;4.73;;;17.20;99.90;;;;;;5054872;28;20180;-78
2023/06/12 02:15:23;;;;;;;5.10;4.70;;;17.20;99.90;;;;;;5054972;28;20172;-80
2023/06/12 02:17:50;;;;;;;5.00;4.70;;;17.20;99.90;;;;;;5054709;28;20275;-79
2023/06/12 02:20:16;;;;;;;5.87;5.10;;;17.20;99.90;;;;;;5054287;28;20262;-80
2023/06/12 02:22:42;;;;;;;4.80;4.50;;;17.10;99.90;;;;;;5054775;28;20259;-82
2023/06/12 02:25:08;;;;;;;5.17;4.87;;;17.00;99.90;;;;;;5036853;28;20195;-81
2023/06/12 02:27:33;;;;;;;5.23;4.83;;;17.00;99.90;;;;;;5054774;28;20168;-82
2023/06/12 02:29:59;;;;;;;5.33;4.93;;;17.00;99.90;;;;;;5054121;28;20203;-80
2023/06/12 02:32:25;;;;;;;5.10;4.80;;;17.00;99.90;;;;;;5036904;28;20171;-79
2023/06/12 02:34:52;;;;;;;5.40;4.90;;;17.00;99.90;;;;;;5037474;28;20635;-79
2023/06/12 02:37:18;;;;;;;5.07;4.67;;;17.00;99.90;;;;;;5056551;28;20210;-80
2023/06/12 02:39:44;;;;;;;5.53;5.03;;;17.00;99.90;;;;;;5036752;28;20653;-81
2023/06/12 02:42:10;;;;;;;6.83;5.23;;;16.90;99.90;;;;;;5054784;28;20199;-81
2023/06/12 02:44:36;;;;;;;5.50;5.00;;;16.90;99.90;;;;;;5055470;28;20171;-79
2023/06/12 02:47:02;;;;;;;6.43;4.83;;;16.90;99.90;;;;;;5056073;28;20179;-79
2023/06/12 02:49:29;;;;;;;6.47;4.90;;;16.90;99.90;;;;;;5055582;28;20180;-79
2023/06/12 02:51:56;;;;;;;5.00;4.57;;;17.00;99.90;;;;;;5055580;28;20231;-79
2023/06/12 02:54:23;;;;;;;6.90;4.83;;;17.00;99.90;;;;;;5056404;28;20242;-80
2023/06/12 02:56:49;;;;;;;7.73;5.17;;;17.00;99.90;;;;;;5055090;28;20176;-80
2023/06/12 02:59:19;;;;;;;5.37;4.93;;;16.90;99.90;;;;;;5054212;28;20273;-79
2023/06/12 03:01:45;;;;;;;5.07;4.77;;;17.00;99.90;;;;;;5054343;28;20167;-80
2023/06/12 03:04:21;;;;;;;5.30;4.90;;;17.00;99.90;;;;;;5054762;28;20175;-81
2023/06/12 03:06:53;;;;;;;5.27;4.87;;;17.00;99.90;;;;;;5036584;28;20211;-79
2023/06/12 03:09:22;;;;;;;4.80;4.53;;;17.00;99.90;;;;;;5055372;28;20184;-81
2023/06/12 03:11:53;;;;;;;6.03;5.63;;;17.00;99.90;;;;;;5053788;28;20171;-78
2023/06/12 03:14:24;;;;;;;5.40;5.00;;;17.00;99.90;;;;;;5055086;28;20191;-78
2023/06/12 03:16:50;;;;;;;5.63;5.10;;;15.80;99.90;;;;;;5054717;28;20209;-78
2023/06/12 03:19:16;;;;;;;5.70;5.30;;;17.00;99.90;;;;;;5054047;28;20293;-80
2023/06/12 03:21:42;;;;;;;5.07;4.67;;;17.00;99.90;;;;;;5054220;28;20172;-78
2023/06/12 03:24:07;;;;;;;4.80;4.50;;;17.00;99.90;;;;;;5054879;28;20180;-79
2023/06/12 03:26:33;;;;;;;5.37;4.87;;;17.00;99.90;;;;;;5054207;28;20180;-79
2023/06/12 03:29:00;;;;;;;5.23;4.80;;;17.00;99.90;;;;;;5053505;28;20164;-79
2023/06/12 03:31:27;;;;;;;4.87;4.47;;;17.00;99.90;;;;;;5035302;28;20183;-79
2023/06/12 03:33:56;;;;;;;5.37;4.90;;;17.10;99.90;;;;;;5035580;28;20187;-79
2023/06/12 03:36:28;;;;;;;5.43;4.80;;;17.40;99.90;;;;;;5053454;28;20264;-79
2023/06/12 03:38:54;;;;;;;5.30;4.90;;;17.10;99.90;;;;;;5053232;28;20247;-80
2023/06/12 03:41:22;;;;;;;5.10;4.63;;;17.00;99.90;;;;;;5053451;28;20624;-78
2023/06/12 03:43:49;;;;;;;5.30;4.90;;;17.00;99.90;;;;;;5053306;28;20176;-79
2023/06/12 03:46:14;;;;;;;5.10;4.80;;;17.10;99.90;;;;;;5052636;28;20183;-79
2023/06/12 03:48:40;;;;;;;5.80;4.80;;;17.10;99.90;;;;;;5035700;28;20179;-81
2023/06/12 03:51:06;;;;;;;6.60;5.10;;;17.10;99.90;;;;;;5053963;28;20228;-80
2023/06/12 03:53:32;;;;;;;5.53;5.03;;;17.10;99.90;;;;;;5055141;28;20179;-79
2023/06/12 03:55:57;;;;;;;5.20;4.80;;;17.10;99.90;;;;;;5055601;28;20203;-79
2023/06/12 03:58:24;;;;;;;6.20;5.60;;;17.10;99.90;;;;;;5054658;28;20211;-81
2023/06/12 04:00:50;;;;;;;9.00;5.73;;;17.20;99.90;;;;;;5053898;28;20174;-79
2023/06/12 04:03:18;;;;;;;5.30;5.00;;;17.20;99.90;;;;;;5038654;28;20186;-81
2023/06/12 04:05:45;;;;;;;6.10;5.60;;;17.20;99.90;;;;;;5054052;28;20172;-78
2023/06/12 04:08:11;;;;;;;5.47;5.07;;;17.20;99.90;;;;;;5054041;28;20198;-79
2023/06/12 04:10:36;;;;;;;5.60;5.13;;;17.20;99.90;;;;;;5054661;28;20548;-79
2023/06/12 04:13:02;;;;;;;6.43;5.93;;;17.20;99.90;;;;;;5054164;28;20179;-81
2023/06/12 04:15:29;;;;;;;5.63;4.93;;;17.10;99.90;;;;;;5056481;28;20666;-81
2023/06/12 04:17:58;;;;;;;5.20;4.87;;;17.10;99.90;;;;;;5056135;28;20196;-80
2023/06/12 04:20:26;;;;;;;5.20;4.90;;;17.20;99.90;;;;;;5053958;28;20173;-80
2023/06/12 04:22:52;;;;;;;5.90;5.40;;;17.20;99.90;;;;;;5054256;28;20168;-80
2023/06/12 04:25:18;;;;;;;6.13;5.63;;;17.20;99.90;;;;;;5053729;28;20198;-79
2023/06/12 04:27:44;;;;;;;5.37;4.87;;;17.30;99.90;;;;;;5053616;28;20225;-79
2023/06/12 04:30:10;;;;;;;5.57;5.17;;;17.30;99.90;;;;;;5053153;28;20179;-78
2023/06/12 04:32:37;;;;;;;5.63;5.13;;;17.40;99.90;;;;;;5053138;28;20626;-79
2023/06/12 04:35:05;;;;;;;6.37;5.87;;;17.30;99.90;;;;;;5054277;28;20191;-79
2023/06/12 04:37:30;;;;;;;6.80;6.07;;;17.40;99.90;;;;;;5053802;28;20652;-81
2023/06/12 04:39:57;;;;;;;5.97;5.47;;;17.40;99.90;;;;;;5053644;28;20203;-83
2023/06/12 04:42:24;;;;;;;6.17;5.57;;;17.40;99.90;;;;;;5054106;28;20184;-80
2023/06/12 04:44:50;;;;;;;5.67;5.30;;;17.50;99.90;;;;;;5054076;28;20168;-80
2023/06/12 04:47:16;;;;;;;6.10;5.50;;;17.60;99.90;;;;;;5054613;28;20176;-82
2023/06/12 04:49:45;;;;;;;5.40;5.00;;;17.70;99.90;;;;;;5053925;28;20171;-80
2023/06/12 04:52:12;;;;;;;5.90;5.40;;;17.80;99.90;;;;;;5053209;28;20227;-81
2023/06/12 04:54:41;;;;;;;5.87;5.40;;;17.70;99.90;;;;;;5053535;28;20198;-81
2023/06/12 04:57:12;;;;;;;5.57;5.07;;;17.70;99.90;;;;;;5053249;28;20535;-79
2023/06/12 04:59:39;;;;;;;6.10;5.60;;;17.80;99.90;;;;;;5054865;28;20210;-79
2023/06/12 05:02:07;;;;;;;5.87;5.40;;;17.90;99.90;;;;;;5053255;28;20173;-79
2023/06/12 05:04:35;;;;;;;6.60;5.77;;;17.80;99.90;;;;;;5035503;28;20252;-80
2023/06/12 05:07:03;;;;;;;5.90;5.50;;;17.80;99.90;;;;;;5053052;28;20167;-79
2023/06/12 05:09:29;;;;;;;5.20;4.90;;;17.90;99.90;;;;;;5052893;28;20568;-79
2023/06/12 05:11:55;;;;;;;6.03;5.43;;;18.00;99.90;;;;;;5052832;28;20216;-80
2023/06/12 05:14:21;;;;;;;6.43;5.80;;;18.00;99.90;;;;;;5053187;28;20183;-78
2023/06/12 05:16:46;;;;;;;9.53;5.73;;;18.00;99.90;;;;;;5053163;28;20183;-78
2023/06/12 05:19:12;;;;;;;5.43;5.07;;;18.10;99.90;;;;;;5053248;28;20314;-78
2023/06/12 05:21:41;;;;;;;6.47;5.87;;;18.00;99.90;;;;;;5053379;28;20183;-81
2023/06/12 05:24:07;;;;;;;6.43;5.93;;;18.00;99.90;;;;;;5052953;28;20178;-79
2023/06/12 05:26:33;;;;;;;5.70;5.20;;;18.10;99.90;;;;;;5053418;28;20247;-79
2023/06/12 05:28:59;;;;;;;5.43;5.10;;;18.20;99.90;;;;;;5053129;28;20202;-78
2023/06/12 05:31:26;;;;;;;6.17;5.57;;;18.30;99.90;;;;;;5053487;28;20175;-81
2023/06/12 05:33:52;;;;;;;9.37;5.70;;;18.20;99.90;;;;;;5055267;28;20585;-83
2023/06/12 05:36:17;;;;;;;5.83;5.33;;;18.20;99.90;;;;;;5021383;28;20230;-80
2023/06/12 05:38:46;;;;;;;6.10;5.63;;;18.20;99.90;;;;;;5055091;28;20222;-80
2023/06/12 05:41:14;;;;;;;5.53;5.13;;;18.30;99.90;;;;;;5057384;28;20217;-77
2023/06/12 05:43:40;;;;;;;6.53;5.90;;;18.30;99.90;;;;;;5055166;28;20274;-80
2023/06/12 05:46:05;;;;;;;6.70;5.63;;;18.30;99.90;;;;;;5053247;28;20259;-81
2023/06/12 05:48:31;;;;;;;6.10;5.53;;;18.30;99.90;;;;;;5053966;28;20623;-79
2023/06/12 05:50:57;;;;;;;6.07;5.57;;;18.30;99.90;;;;;;5053451;28;20223;-79
2023/06/12 05:53:23;;;;;;;5.90;5.50;;;18.40;99.90;;;;;;5036086;28;20188;-80
2023/06/12 05:55:48;;;;;;;5.83;5.43;;;18.40;99.90;;;;;;5053259;28;20203;-80
2023/06/12 05:58:14;;;;;;;7.10;5.60;;;18.40;99.90;;;;;;5055011;28;20286;-81
2023/06/12 06:00:40;;;;;;;7.27;6.67;;;18.50;99.90;;;;;;5054982;28;20180;-81
2023/06/12 06:03:06;;;;;;;6.73;6.13;;;18.50;99.90;;;;;;5053065;28;20535;-81
2023/06/12 06:05:32;;;;;;;6.77;5.67;;;18.50;99.90;;;;;;5051915;28;20313;-81
2023/06/12 06:07:58;;;;;;;7.53;5.90;;;18.50;99.90;;;;;;5055794;28;20195;-80
2023/06/12 06:10:24;;;;;;;6.17;5.57;;;18.50;99.90;;;;;;5055862;28;20230;-80
2023/06/12 06:12:52;;;;;;;7.10;6.50;;;18.40;99.90;;;;;;5054785;28;20180;-81
2023/06/12 06:15:19;;;;;;;5.97;5.37;;;18.40;99.90;;;;;;5037650;28;20619;-79
2023/06/12 06:17:45;;;;;;;6.13;5.63;;;18.60;99.90;;;;;;5055837;28;20167;-80
2023/06/12 06:20:12;;;;;;;6.50;5.90;;;18.80;99.90;;;;;;5056231;28;20187;-77
2023/06/12 06:22:37;;;;;;;7.43;5.80;;;19.00;99.90;;;;;;5057298;28;20191;-80
2023/06/12 06:25:04;;;;;;;6.53;5.93;;;19.10;99.90;;;;;;5058608;28;20175;-81
2023/06/12 06:27:30;;;;;;;5.70;5.27;;;19.40;99.90;;;;;;5061008;28;20680;-79
2023/06/12 06:29:56;;;;;;;5.90;5.40;;;19.40;99.90;;;;;;5057623;28;20168;-78
2023/06/12 06:32:21;;;;;;;5.77;5.27;;;19.60;99.90;;;;;;5039385;28;20318;-79
2023/06/12 06:34:48;;;;;;;6.90;5.70;;;19.70;99.90;;;;;;5057788;28;20537;-78
2023/06/12 06:37:14;;;;;;;5.87;5.37;;;19.80;99.90;;;;;;5055714;28;20239;-79
2023/06/12 06:39:40;;;;;;;10.03;5.73;;;19.80;99.90;;;;;;5055182;28;20199;-80
2023/06/12 06:42:06;;;;;;;7.17;6.40;;;19.90;99.90;;;;;;5057632;28;20168;-80
2023/06/12 06:44:32;;;;;;;8.27;5.87;;;20.00;99.90;;;;;;5058484;28;20175;-78
2023/06/12 06:46:57;;;;;;;6.83;5.80;;;20.10;99.90;;;;;;5055828;28;20176;-82
2023/06/12 06:49:23;;;;;;;6.10;5.53;;;20.20;99.90;;;;;;5053541;28;20584;-81
2023/06/12 06:51:49;;;;;;;8.00;6.53;;;20.30;99.90;;;;;;5055720;28;20223;-79
2023/06/12 06:54:15;;;;;;;6.30;5.80;;;20.50;99.90;;;;;;5038605;28;20191;-81
2023/06/12 06:56:41;;;;;;;6.53;6.03;;;20.70;99.90;;;;;;5054950;28;20172;-81
2023/06/12 06:59:06;;;;;;;6.17;5.77;;;20.80;99.90;;;;;;5054552;28;20285;-78
2023/06/12 07:01:33;;;;;;;6.37;5.87;;;20.90;99.90;;;;;;5054303;28;20168;-79
2023/06/12 07:03:59;;;;;;;8.73;6.20;;;21.00;99.90;;;;;;5054641;28;20175;-79
2023/06/12 07:06:26;;;;;;;5.80;5.30;;;21.20;99.90;;;;;;5055013;28;20255;-81
2023/06/12 07:08:51;;;;;;;5.90;5.30;;;21.20;99.90;;;;;;5054617;28;20224;-79
2023/06/12 07:11:17;;;;;;;6.07;5.50;;;21.10;99.90;;;;;;5054363;28;20576;-80
2023/06/12 07:13:43;;;;;;;5.87;5.30;;;21.00;99.90;;;;;;5054326;28;20190;-81
2023/06/12 07:16:09;;;;;;;5.50;5.10;;;20.80;99.90;;;;;;5054607;28;20168;-78
2023/06/12 07:18:34;;;;;;;5.47;5.07;;;20.80;99.90;;;;;;5053269;28;20697;-78
2023/06/12 07:21:00;;;;;;;7.00;4.90;;;20.70;99.90;;;;;;5053223;28;20198;-78
2023/06/12 07:23:26;;;;;;;5.20;4.90;;;20.70;99.90;;;;;;5054218;28;20225;-79
2023/06/12 07:25:52;;;;;;;5.10;4.80;;;20.80;99.90;;;;;;5065387;28;20578;-78
2023/06/12 07:28:18;;;;;;;4.50;4.20;;;20.70;99.90;;;;;;5063580;28;20559;-79
2023/06/12 07:30:43;;;;;;;4.97;4.57;;;20.70;99.90;;;;;;5069306;28;20167;-77
2023/06/12 07:33:10;;;;;;;4.33;4.03;;;20.70;99.90;;;;;;5072288;28;20187;-80
2023/06/12 07:35:36;;;;;;;5.00;4.57;;;20.80;99.90;;;;;;5044202;28;20172;-78
2023/06/12 07:38:02;;;;;;;4.43;4.13;;;20.80;99.90;;;;;;5057019;28;20202;-78
2023/06/12 07:40:28;;;;;;;4.37;4.07;;;20.90;99.90;;;;;;5058076;28;20180;-79
2023/06/12 07:42:54;;;;;;;4.70;4.40;;;20.90;99.90;;;;;;5055913;28;20243;-79
2023/06/12 07:45:20;;;;;;;4.40;4.10;;;21.10;99.90;;;;;;5054264;28;20639;-79
2023/06/12 07:47:47;;;;;;;4.50;4.23;;;21.30;99.90;;;;;;5054164;28;20172;-79
2023/06/12 07:50:13;;;;;;;4.50;4.20;;;21.60;99.90;;;;;;5054029;28;20168;-82
2023/06/12 07:52:39;;;;;;;4.50;4.10;;;21.80;99.90;;;;;;5054163;28;20595;-81
2023/06/12 07:55:05;;;;;;;4.30;4.00;;;21.90;99.90;;;;;;5053804;28;20171;-77
2023/06/12 07:57:31;;;;;;;4.40;4.10;;;21.80;99.90;;;;;;5037023;28;20183;-79
2023/06/12 07:59:57;;;;;;;4.33;3.93;;;21.70;99.90;;;;;;5055423;28;20576;-80
2023/06/12 08:02:28;;;;;;;3.83;3.63;;;21.70;99.90;;;;;;5054879;28;20183;-81
2023/06/12 08:04:55;;;;;;;4.47;4.07;;;21.60;99.90;;;;;;5054152;28;20164;-81
2023/06/12 08:07:21;;;;;;;4.20;3.80;;;21.80;99.90;;;;;;5053388;28;20175;-81
2023/06/12 08:09:47;;;;;;;4.20;3.90;;;21.90;99.90;;;;;;5053313;28;20163;-81
2023/06/12 08:12:13;;;;;;;4.40;4.00;;;21.90;99.90;;;;;;5035491;28;20255;-77
2023/06/12 08:14:39;;;;;;;4.80;4.50;;;22.10;99.90;;;;;;5053236;28;20370;-79
2023/06/12 08:17:05;;;;;;;4.57;4.20;;;22.20;99.90;;;;;;5053070;28;20176;-77
2023/06/12 08:19:32;;;;;;;4.82;4.22;;;22.50;99.90;;;;;;5052979;28;20207;-78
2023/06/12 08:21:59;;;;;;;6.23;4.40;;;22.50;99.90;;;;;;5052952;28;20253;-77
2023/06/12 08:24:29;;;;;;;4.53;4.03;;;22.40;99.90;;;;;;5053073;28;20706;-78
2023/06/12 08:26:55;;;;;;;5.43;4.27;;;22.50;99.90;;;;;;5052848;28;20263;-78
2023/06/12 08:29:21;;;;;;;4.40;4.00;;;22.50;99.90;;;;;;5052885;28;20163;-79
2023/06/12 08:31:47;;;;;;;4.10;3.90;;;22.60;99.90;;;;;;5052552;28;20182;-77
2023/06/12 08:34:12;;;;;;;4.00;3.80;;;22.50;99.90;;;;;;5052524;28;20176;-77
2023/06/12 08:36:38;;;;;;;4.43;4.13;;;22.60;99.90;;;;;;5052692;28;20591;-78
2023/06/12 08:39:04;;;;;;;4.50;4.20;;;22.50;99.90;;;;;;5053782;28;20675;-79
2023/06/12 08:41:32;;;;;;;4.18;3.92;;;22.50;99.90;;;;;;5054333;28;20202;-81
2023/06/12 08:44:01;;;;;;;4.30;3.93;;;22.70;99.90;;;;;;5054097;28;20179;-80
2023/06/12 08:46:30;;;;;;;5.65;4.30;;;22.70;99.90;;;;;;5052762;28;20584;-79
2023/06/12 08:49:00;;;;;;;4.18;3.88;;;22.80;99.90;;;;;;5052533;28;20198;-81
2023/06/12 08:51:28;;;;;;;4.45;4.03;;;22.90;99.90;;;;;;5052377;28;20246;-79
2023/06/12 08:53:56;;;;;;;4.65;4.25;;;23.00;99.90;;;;;;5054522;28;20175;-78
2023/06/12 08:56:22;;;;;;;4.15;3.90;;;22.80;99.90;;;;;;5053722;28;20169;-77
2023/06/12 08:58:48;;;;;;;4.05;3.78;;;22.80;99.90;;;;;;5052798;28;20285;-80
2023/06/12 09:01:14;;;;;;;4.10;3.90;;;23.00;99.90;;;;;;5053512;28;20176;-78
2023/06/12 09:03:48;;;;;;;4.20;3.90;;;23.10;99.90;;;;;;5052685;28;20168;-78
2023/06/12 09:06:17;;;;;;;4.20;4.00;;;23.00;99.90;;;;;;5052740;28;20156;-77
2023/06/12 09:08:43;;;;;;;4.25;4.03;;;22.90;99.90;;;;;;5053003;28;20650;-78
2023/06/12 09:11:09;;;;;;;4.25;3.85;;;22.80;99.90;;;;;;5052586;28;20168;-80
2023/06/12 09:13:42;;;;;;;4.10;3.90;;;22.90;99.90;;;;;;5034854;28;20565;-79
2023/06/12 09:16:12;;;;;;;3.88;3.65;;;23.00;99.90;;;;;;5052517;28;20168;-77
2023/06/12 09:18:56;;;;;;;4.82;4.05;;;23.20;99.90;;;;;;5051928;28;20195;-79
2023/06/12 09:21:23;;;;;;;4.13;3.90;;;23.00;99.90;;;;;;5052093;28;20160;-78
2023/06/12 09:23:55;;;;;;;4.25;3.95;;;23.00;99.90;;;;;;5052056;28;20527;-77
2023/06/12 09:26:24;;;;;;;4.18;3.90;;;23.20;99.90;;;;;;5051786;28;20171;-80
2023/06/12 09:28:53;;;;;;;4.40;4.10;;;23.30;99.90;;;;;;5052314;28;20183;-80
2023/06/12 09:31:20;;;;;;;4.32;4.10;;;23.20;99.90;;;;;;5052629;28;20395;-77
2023/06/12 09:33:46;;;;;;;4.00;3.70;;;23.00;99.90;;;;;;5052215;28;20168;-80
2023/06/12 09:36:13;;;;;;;4.30;4.00;;;23.10;99.90;;;;;;5052412;28;20199;-78
2023/06/12 09:38:39;;;;;;;4.30;4.00;;;23.20;99.90;;;;;;5052211;28;20207;-77
2023/06/12 09:41:07;;;;;;;5.05;4.63;;;23.30;99.90;;;;;;5052331;28;20164;-78
2023/06/12 09:43:33;;;;;;;5.57;4.03;;;23.30;99.90;;;;;;5034761;28;20605;-76
2023/06/12 09:46:02;;;;;;;4.47;3.95;;;23.40;99.90;;;;;;5038168;28;20512;-80
2023/06/12 09:48:36;;;;;;;4.65;4.18;;;23.00;99.90;;;;;;5056507;28;20206;-79
2023/06/12 09:51:09;;;;;;;4.50;4.20;;;22.90;99.90;;;;;;5055888;28;20781;-81
2023/06/12 09:53:36;;;;;;;4.80;4.40;;;22.70;99.90;;;;;;5038752;28;20169;-79
2023/06/12 09:56:05;;;;;;;4.55;4.25;;;22.70;99.90;;;;;;5056499;28;20266;-79
2023/06/12 09:58:36;;;;;;;4.80;4.40;;;22.70;99.90;;;;;;5057698;28;20207;-80
2023/06/12 10:01:05;;;;;;;4.38;4.07;;;22.70;99.90;;;;;;5057674;28;20525;-78
2023/06/12 10:03:37;;;;;;;4.50;4.20;;;22.70;99.90;;;;;;5056094;28;20235;-77
2023/06/12 10:06:05;;;;;;;4.65;4.35;;;22.70;99.90;;;;;;5055767;28;20263;-78
2023/06/12 10:08:31;;;;;;;4.88;4.53;;;22.70;99.90;;;;;;5055388;28;20242;-79
2023/06/12 10:10:57;;;;;;;4.50;4.18;;;22.60;99.90;;;;;;5055772;28;20186;-79
2023/06/12 10:13:25;;;;;;;6.10;4.23;;;22.50;99.90;;;;;;5056830;28;20539;-79
2023/06/12 10:15:52;;;;;;;4.37;4.07;;;22.20;99.90;;;;;;5038747;28;20593;-79
2023/06/12 10:18:19;;;;;;;4.53;4.13;;;22.30;99.90;;;;;;5055705;28;20211;-77
2023/06/12 10:20:46;;;;;;;4.28;3.97;;;22.30;99.90;;;;;;5055792;28;20164;-77
2023/06/12 10:23:12;;;;;;;4.13;3.78;;;22.20;99.90;;;;;;5057317;28;20176;-80
2023/06/12 10:25:38;;;;;;;4.85;3.75;;;22.30;99.90;;;;;;5056491;28;20180;-79
2023/06/12 10:28:06;;;;;;;4.07;3.88;;;22.50;99.90;;;;;;5056180;28;20180;-79
2023/06/12 10:30:31;;;;;;;4.30;4.00;;;22.50;99.90;;;;;;5056136;28;20246;-82
2023/06/12 10:33:13;;;;;;;5.87;4.13;;;22.50;99.90;;;;;;5058268;28;20202;-80
2023/06/12 10:35:39;;;;;;;4.80;4.10;;;22.60;99.90;;;;;;5056165;28;20195;-77
2023/06/12 10:38:05;;;;;;;4.87;4.57;;;22.70;99.90;;;;;;5056049;28;20555;-81
2023/06/12 10:40:31;;;;;;;4.47;4.10;;;22.70;99.90;;;;;;5055629;28;20176;-77
2023/06/12 10:43:03;;;;;;;3.80;3.60;;;22.90;99.90;;;;;;5055557;28;20198;-77
2023/06/12 10:45:33;;;;;;;4.55;4.25;;;23.10;99.90;;;;;;5055147;28;20183;-79
2023/06/12 10:48:05;;;;;;;4.53;4.23;;;23.10;99.90;;;;;;5058305;28;20726;-77
2023/06/12 10:50:31;;;;;;;4.10;3.85;;;23.20;99.90;;;;;;5055715;28;20223;-78
2023/06/12 10:53:01;;;;;;;4.15;3.85;;;23.60;99.90;;;;;;5057132;28;20176;-78
2023/06/12 10:55:27;;;;;;;4.32;3.92;;;23.50;99.90;;;;;;5055768;28;20164;-79
2023/06/12 10:58:06;;;;;;;5.57;4.63;;;23.40;99.90;;;;;;5055100;28;20250;-77
2023/06/12 11:00:45;;;;;;;4.03;3.83;;;23.40;99.90;;;;;;5055740;28;20163;-78
2023/06/12 11:03:18;;;;;;;3.80;3.60;;;23.40;99.90;;;;;;5055604;28;20623;-77
2023/06/12 11:05:49;;;;;;;4.35;4.05;;;23.20;99.90;;;;;;5059126;28;20562;-78
2023/06/12 11:08:15;;;;;;;4.35;4.05;;;23.20;99.90;;;;;;5055837;28;20731;-78
2023/06/12 11:10:42;;;;;;;4.25;3.97;;;23.20;99.90;;;;;;5056491;28;20631;-76
2023/06/12 11:13:08;;;;;;;4.72;4.32;;;23.10;99.90;;;;;;5056909;28;20579;-80
2023/06/12 11:15:44;;;;;;;4.75;4.35;;;23.00;99.90;;;;;;5055967;28;20216;-78
2023/06/12 11:18:11;;;;;;;4.35;4.05;;;22.90;99.90;;;;;;5055012;28;20167;-80
2023/06/12 11:20:38;;;;;;;4.80;4.35;;;22.80;99.90;;;;;;5056567;28;20195;-79
2023/06/12 11:23:05;;;;;;;4.55;4.30;;;22.80;99.90;;;;;;5056816;28;20211;-81
2023/06/12 11:25:45;;;;;;;4.40;4.18;;;22.90;99.90;;;;;;5058278;28;20255;-82
2023/06/12 11:28:14;;;;;;;5.18;4.63;;;23.00;99.90;;;;;;5055089;28;20179;-84
2023/06/12 11:30:42;;;;;;;4.60;4.30;;;23.20;99.90;;;;;;5055011;28;20180;-84
2023/06/12 11:33:19;;;;;;;4.88;4.50;;;23.20;99.90;;;;;;5055197;28;20172;-83
2023/06/12 11:35:47;;;;;;;4.60;4.30;;;23.30;99.90;;;;;;5055105;28;20164;-79
2023/06/12 11:38:15;;;;;;;4.90;4.40;;;23.40;99.90;;;;;;5056769;28;20171;-82
2023/06/12 11:40:42;;;;;;;4.53;4.22;;;23.30;99.90;;;;;;5060889;28;20180;-82
2023/06/12 11:43:08;;;;;;;4.32;3.92;;;23.30;99.90;;;;;;5041624;28;20164;-83
2023/06/12 11:45:41;;;;;;;4.30;3.90;;;23.10;99.90;;;;;;5055318;28;20225;-82
2023/06/12 11:48:14;;;;;;;4.40;4.10;;;23.20;99.90;;;;;;5055056;28;20515;-80
2023/06/12 11:50:45;;;;;;;4.43;4.13;;;23.00;99.90;;;;;;5033034;28;20231;-83
2023/06/12 11:53:12;;;;;;;4.53;3.77;;;23.00;99.90;;;;;;5033672;28;20223;-79
2023/06/12 11:55:38;;;;;;;7.50;4.10;;;23.00;99.90;;;;;;5037072;28;20261;-81
2023/06/12 11:58:04;;;;;;;4.90;4.40;;;23.20;99.90;;;;;;5037736;28;20164;-82
2023/06/12 12:00:32;;;;;;;3.85;3.55;;;23.40;99.90;;;;;;5035109;28;20184;-83
2023/06/12 12:03:04;;;;;;;4.15;3.85;;;23.40;99.90;;;;;;5035532;28;20200;-81
2023/06/12 12:05:35;;;;;;;4.05;3.75;;;23.60;99.90;;;;;;5035539;28;20168;-81
2023/06/12 12:08:03;;;;;;;4.30;4.00;;;23.40;99.90;;;;;;5034025;28;20546;-80
2023/06/12 12:10:33;;;;;;;3.88;3.67;;;23.50;99.90;;;;;;5034413;28;20206;-82
2023/06/12 12:13:00;;;;;;;4.03;3.72;;;23.60;99.90;;;;;;5034145;28;20157;-82
2023/06/12 12:15:38;;;;;;;4.15;3.95;;;23.50;99.90;;;;;;5034232;28;20195;-83
2023/06/12 12:18:09;;;;;;;4.32;4.03;;;23.30;99.90;;;;;;5033270;28;20179;-82
2023/06/12 12:20:35;;;;;;;4.47;4.07;;;23.10;99.90;;;;;;5033316;28;20568;-78
2023/06/12 12:23:03;;;;;;;3.67;3.47;;;23.10;99.90;;;;;;5032518;28;20287;-79
2023/06/12 12:25:31;;;;;;;3.70;3.50;;;23.10;99.90;;;;;;5033962;28;20194;-82
2023/06/12 12:28:02;;;;;;;3.90;3.70;;;23.00;99.90;;;;;;5034167;28;20177;-78
2023/06/12 12:30:29;;;;;;;4.07;3.88;;;23.00;99.90;;;;;;5033789;28;20709;-80
2023/06/12 12:32:56;;;;;;;5.78;5.13;;;23.00;99.90;;;;;;5037562;28;20173;-80
2023/06/12 12:35:24;;;;;;;5.80;5.35;;;23.10;99.90;;;;;;5034575;28;20180;-79
2023/06/12 12:37:51;;;;;;;4.95;4.43;;;23.20;99.90;;;;;;5034449;28;20223;-82
2023/06/12 12:40:18;;;;;;;4.65;3.50;;;23.50;99.90;;;;;;5034726;28;20208;-80
2023/06/12 12:42:47;;;;;;;4.32;4.03;;;23.70;99.90;;;;;;5034858;28;20165;-79
2023/06/12 12:45:19;;;;;;;3.40;3.30;;;23.70;99.90;;;;;;5038697;28;20168;-80
2023/06/12 12:47:47;;;;;;;3.33;3.22;;;23.70;99.90;;;;;;5051416;28;20176;-80
2023/06/12 12:50:15;;;;;;;3.83;3.60;;;23.60;99.60;;;;;;5051037;28;20231;-79